createdAt,value
2023-02-19T00:00:06.404Z,68.46
2023-02-19T00:02:35.762Z,68.77
2023-02-19T00:05:04.588Z,68.55
2023-02-19T00:07:33.173Z,68.83
2023-02-19T00:10:01.104Z,69.49
2023-02-19T00:12:29.393Z,69.63
2023-02-19T00:14:58.649Z,69.71
2023-02-19T00:17:27.335Z,70.23
2023-02-19T00:19:55.136Z,71.44
2023-02-19T00:22:24.059Z,71.37
2023-02-19T00:24:52.024Z,70.81
2023-02-19T00:27:19.909Z,71.44
2023-02-19T00:29:46.824Z,70.98
2023-02-19T00:32:13.798Z,70.81
2023-02-19T00:34:42.510Z,70.53
2023-02-19T00:37:10.273Z,70.36
2023-02-19T00:39:37.995Z,70.57
2023-02-19T00:42:06.074Z,70.60
2023-02-19T00:44:33.901Z,70.36
2023-02-19T00:47:00.888Z,70.24
2023-02-19T00:49:28.855Z,70.77
2023-02-19T00:51:55.761Z,70.31
2023-02-19T00:54:24.875Z,70.20
2023-02-19T00:56:52.677Z,70.35
2023-02-19T00:59:21.257Z,70.31
2023-02-19T01:01:49.962Z,70.30
2023-02-19T01:04:16.953Z,70.37
2023-02-19T01:06:44.964Z,70.21
2023-02-19T01:09:13.991Z,70.11
2023-02-19T01:11:41.073Z,69.98
2023-02-19T01:14:12.698Z,69.65
2023-02-19T01:16:39.621Z,68.73
2023-02-19T01:19:06.614Z,68.78
2023-02-19T01:21:34.561Z,68.46
2023-02-19T01:24:02.467Z,68.95
2023-02-19T01:26:35.251Z,70.32
2023-02-19T01:29:03.260Z,70.67
2023-02-19T01:31:32.846Z,71.38
2023-02-19T01:34:01.695Z,73.34
2023-02-19T01:36:30.152Z,73.19
2023-02-19T01:39:00.878Z,73.12
2023-02-19T01:41:28.643Z,74.65
2023-02-19T01:43:59.405Z,76.05
2023-02-19T01:46:33.308Z,77.21
2023-02-19T01:49:06.283Z,77.28
2023-02-19T01:51:38.068Z,76.63
2023-02-19T01:54:10.006Z,75.80
2023-02-19T01:56:41.027Z,75.28
2023-02-19T01:59:08.369Z,75.10
2023-02-19T02:01:39.539Z,75.05
2023-02-19T02:04:11.192Z,73.62
2023-02-19T02:07:00.025Z,72.76
2023-02-19T02:10:05.836Z,72.45
2023-02-19T02:12:32.907Z,71.74
2023-02-19T02:15:00.836Z,72.02
2023-02-19T02:17:49.824Z,72.01
2023-02-19T02:20:40.683Z,72.15
2023-02-19T02:23:17.065Z,73.38
2023-02-19T02:25:57.347Z,73.89
2023-02-19T02:28:26.913Z,74.77
2023-02-19T02:30:59.865Z,75.25
2023-02-19T02:33:44.324Z,74.37
2023-02-19T02:36:18.493Z,73.87
2023-02-19T02:38:47.431Z,73.13
2023-02-19T02:41:16.075Z,72.50
2023-02-19T02:43:43.187Z,72.22
2023-02-19T02:46:13.631Z,71.75
2023-02-19T02:48:45.631Z,72.46
2023-02-19T02:51:21.115Z,72.11
2023-02-19T02:54:16.210Z,71.82
2023-02-19T02:56:46.583Z,72.38
2023-02-19T02:59:20.099Z,72.89
2023-02-19T03:02:11.930Z,73.76
2023-02-19T03:05:25.838Z,74.07
2023-02-19T03:08:00.898Z,74.68
2023-02-19T03:10:44.775Z,74.28
2023-02-19T03:13:37.500Z,74.04
2023-02-19T03:16:30.873Z,73.32
2023-02-19T03:19:19.137Z,73.56
2023-02-19T03:21:57.115Z,74.22
2023-02-19T03:24:48.419Z,73.94
2023-02-19T03:27:17.105Z,73.13
2023-02-19T03:29:48.905Z,72.85
2023-02-19T03:32:53.183Z,72.88
2023-02-19T03:35:32.002Z,73.63
2023-02-19T03:38:18.726Z,73.59
2023-02-19T03:40:54.334Z,73.87
2023-02-19T03:43:46.601Z,73.62
2023-02-19T03:46:23.397Z,73.64
2023-02-19T03:48:59.466Z,73.51
2023-02-19T03:51:40.649Z,73.20
2023-02-19T03:54:39.488Z,73.03
2023-02-19T03:57:19.207Z,72.84
2023-02-19T03:59:57.279Z,72.46
2023-02-19T04:02:50.857Z,72.65
2023-02-19T04:05:29.455Z,72.78
2023-02-19T04:08:10.300Z,72.35
2023-02-19T04:10:39.903Z,72.29
2023-02-19T04:13:27.053Z,72.00
2023-02-19T04:16:01.408Z,71.90
2023-02-19T04:18:34.048Z,72.06
2023-02-19T04:21:03.430Z,71.99
2023-02-19T04:23:36.806Z,71.26
2023-02-19T04:26:05.285Z,71.10
2023-02-19T04:28:32.270Z,70.92
2023-02-19T04:31:02.131Z,70.83
2023-02-19T04:33:29.920Z,71.12
2023-02-19T04:35:57.647Z,70.95
2023-02-19T04:38:25.622Z,71.14
2023-02-19T04:40:52.614Z,70.99
2023-02-19T04:43:20.055Z,71.10
2023-02-19T04:45:47.899Z,70.63
2023-02-19T04:48:15.796Z,70.85
2023-02-19T04:50:43.566Z,70.49
2023-02-19T04:53:10.520Z,70.39
2023-02-19T04:55:39.719Z,70.12
2023-02-19T04:58:06.615Z,69.43
2023-02-19T05:00:34.619Z,69.74
2023-02-19T05:03:02.495Z,70.33
2023-02-19T05:05:30.452Z,70.00
2023-02-19T05:07:57.489Z,69.49
2023-02-19T05:10:24.519Z,69.21
2023-02-19T05:12:52.184Z,68.94
2023-02-19T05:15:19.774Z,68.88
2023-02-19T05:17:47.345Z,68.88
2023-02-19T05:20:15.943Z,68.79
2023-02-19T05:22:43.558Z,69.14
2023-02-19T05:25:10.410Z,68.95
2023-02-19T05:27:38.006Z,69.05
2023-02-19T05:30:06.460Z,69.96
2023-02-19T05:32:35.963Z,71.25
2023-02-19T05:35:02.922Z,70.90
2023-02-19T05:37:31.772Z,70.54
2023-02-19T05:39:59.516Z,70.30
2023-02-19T05:42:27.195Z,70.03
2023-02-19T05:44:54.058Z,69.89
2023-02-19T05:47:21.856Z,70.14
2023-02-19T05:49:49.681Z,70.32
2023-02-19T05:52:16.545Z,70.34
2023-02-19T05:54:43.518Z,70.44
2023-02-19T05:57:11.293Z,70.15
2023-02-19T05:59:39.097Z,70.08
2023-02-19T06:02:06.789Z,70.14
2023-02-19T06:04:33.860Z,69.79
2023-02-19T06:07:00.814Z,69.86
2023-02-19T06:09:28.782Z,69.40
2023-02-19T06:11:55.702Z,69.00
2023-02-19T06:14:23.604Z,68.93
2023-02-19T06:16:51.284Z,69.51
2023-02-19T06:19:18.274Z,69.64
2023-02-19T06:21:46.885Z,69.43
2023-02-19T06:24:13.817Z,69.43
2023-02-19T06:26:40.685Z,69.41
2023-02-19T06:29:08.366Z,69.91
2023-02-19T06:31:36.331Z,70.10
2023-02-19T06:34:05.290Z,70.06
2023-02-19T06:36:32.218Z,69.42
2023-02-19T06:39:03.482Z,69.46
2023-02-19T06:41:30.449Z,69.43
2023-02-19T06:43:58.448Z,70.04
2023-02-19T06:48:54.220Z,69.14
2023-02-19T06:51:27.466Z,69.69
2023-02-19T06:53:57.029Z,69.37
2023-02-19T06:56:27.020Z,69.13
2023-02-19T06:58:55.826Z,68.69
2023-02-19T07:01:24.423Z,68.96
2023-02-19T07:03:52.825Z,68.79
2023-02-19T07:06:22.348Z,67.85
2023-02-19T07:08:52.226Z,68.00
2023-02-19T07:11:19.988Z,68.15
2023-02-19T07:13:47.736Z,67.71
2023-02-19T07:16:16.017Z,67.69
2023-02-19T07:18:44.559Z,66.58
2023-02-19T07:21:14.263Z,65.72
2023-02-19T07:23:44.148Z,64.84
2023-02-19T07:26:14.285Z,64.69
2023-02-19T07:28:43.587Z,65.26
2023-02-19T07:31:13.642Z,65.02
2023-02-19T07:33:46.162Z,64.75
2023-02-19T07:36:17.108Z,64.38
2023-02-19T07:38:46.644Z,63.99
2023-02-19T07:41:14.675Z,63.87
2023-02-19T07:43:43.360Z,63.43
2023-02-19T07:46:13.469Z,63.87
2023-02-19T07:48:43.245Z,63.56
2023-02-19T07:51:14.101Z,62.96
2023-02-19T07:53:43.115Z,63.44
2023-02-19T07:56:13.159Z,63.17
2023-02-19T07:58:42.544Z,63.40
2023-02-19T08:01:15.040Z,64.44
2023-02-19T08:03:44.846Z,63.27
2023-02-19T08:06:13.719Z,63.75
2023-02-19T08:08:42.340Z,63.81
2023-02-19T08:11:28.958Z,63.13
2023-02-19T08:13:57.156Z,62.92
2023-02-19T08:16:42.248Z,63.31
2023-02-19T08:19:11.887Z,63.01
2023-02-19T08:21:40.147Z,63.03
2023-02-19T08:24:09.229Z,62.52
2023-02-19T08:26:38.169Z,63.04
2023-02-19T08:29:07.084Z,62.55
2023-02-19T08:31:36.361Z,63.05
2023-02-19T08:34:05.082Z,62.96
2023-02-19T08:36:33.666Z,63.25
2023-02-19T08:39:02.285Z,63.95
2023-02-19T08:41:30.996Z,63.82
2023-02-19T08:43:58.947Z,63.67
2023-02-19T08:46:26.963Z,63.69
2023-02-19T08:48:56.055Z,63.41
2023-02-19T08:51:24.721Z,63.98
2023-02-19T08:53:53.252Z,63.76
2023-02-19T08:56:21.856Z,63.94
2023-02-19T08:58:50.586Z,63.92
2023-02-19T09:01:19.601Z,63.80
2023-02-19T09:03:48.264Z,63.30
2023-02-19T09:06:19.837Z,63.03
2023-02-19T09:08:48.408Z,63.03
2023-02-19T09:11:17.548Z,63.08
2023-02-19T09:13:46.177Z,63.28
2023-02-19T09:16:15.464Z,62.65
2023-02-19T09:18:45.900Z,62.39
2023-02-19T09:21:14.561Z,62.08
2023-02-19T09:23:42.732Z,61.85
2023-02-19T09:26:11.571Z,61.37
2023-02-19T09:28:41.967Z,61.42
2023-02-19T09:31:16.705Z,60.84
2023-02-19T09:33:47.409Z,61.17
2023-02-19T09:36:19.042Z,60.51
2023-02-19T09:38:47.055Z,60.58
2023-02-19T09:41:19.017Z,60.80
2023-02-19T09:43:47.652Z,61.10
2023-02-19T09:46:30.740Z,61.11
2023-02-19T09:49:15.872Z,61.29
2023-02-19T09:51:51.550Z,60.15
2023-02-19T09:54:29.352Z,60.34
2023-02-19T09:57:03.155Z,60.49
2023-02-19T09:59:50.568Z,60.47
2023-02-19T10:02:24.556Z,60.78
2023-02-19T10:04:53.889Z,60.29
2023-02-19T10:07:32.136Z,60.12
2023-02-19T10:10:17.924Z,60.04
2023-02-19T10:12:52.408Z,60.29
2023-02-19T10:15:25.682Z,59.89
2023-02-19T10:17:54.612Z,59.98
2023-02-19T10:20:27.900Z,59.69
2023-02-19T10:23:04.178Z,59.66
2023-02-19T10:25:34.711Z,59.57
2023-02-19T10:28:04.405Z,59.68
2023-02-19T10:30:36.176Z,59.48
2023-02-19T10:33:13.056Z,59.24
2023-02-19T10:35:54.649Z,59.32
2023-02-19T10:38:35.471Z,59.56
2023-02-19T10:41:18.270Z,59.52
2023-02-19T10:44:03.490Z,59.93
2023-02-19T10:46:35.990Z,60.19
2023-02-19T10:49:18.945Z,60.02
2023-02-19T10:51:48.112Z,59.91
2023-02-19T10:54:30.334Z,60.23
2023-02-19T10:57:21.256Z,60.38
2023-02-19T10:59:51.717Z,60.24
2023-02-19T11:02:22.262Z,59.92
2023-02-19T11:05:16.397Z,60.12
2023-02-19T11:07:56.544Z,60.45
2023-02-19T11:10:42.693Z,60.45
2023-02-19T11:13:16.809Z,60.71
2023-02-19T11:15:53.086Z,61.08
2023-02-19T11:18:21.711Z,61.07
2023-02-19T11:20:56.922Z,61.37
2023-02-19T11:23:30.598Z,61.54
2023-02-19T11:26:16.201Z,61.32
2023-02-19T11:28:45.025Z,61.28
2023-02-19T11:31:20.104Z,61.61
2023-02-19T11:34:15.137Z,62.12
2023-02-19T11:36:43.732Z,61.76
2023-02-19T11:39:15.184Z,61.59
2023-02-19T11:42:02.177Z,61.39
2023-02-19T11:44:49.263Z,60.80
2023-02-19T11:47:16.050Z,60.70
2023-02-19T11:50:09.393Z,61.67
2023-02-19T11:53:00.680Z,61.78
2023-02-19T11:55:36.765Z,61.82
2023-02-19T11:58:42.232Z,61.48
2023-02-19T12:01:29.594Z,61.66
2023-02-19T12:04:08.680Z,61.38
2023-02-19T12:07:02.064Z,60.07
2023-02-19T12:09:58.827Z,58.96
2023-02-19T12:12:57.188Z,57.71
2023-02-19T12:18:42.134Z,56.06
2023-02-19T12:21:30.236Z,56.08
2023-02-19T12:24:19.646Z,55.20
2023-02-19T12:27:20.658Z,55.16
2023-02-19T12:30:07.138Z,55.59
2023-02-19T12:32:57.461Z,55.15
2023-02-19T12:35:46.611Z,53.85
2023-02-19T12:38:23.576Z,54.87
2023-02-19T12:41:16.823Z,54.05
2023-02-19T12:44:01.690Z,54.30
2023-02-19T12:46:38.771Z,53.10
2023-02-19T12:49:22.948Z,52.90
2023-02-19T12:52:22.140Z,51.62
2023-02-19T12:54:58.410Z,51.90
2023-02-19T12:57:35.457Z,51.99
2023-02-19T13:00:31.872Z,51.57
2023-02-19T13:03:06.448Z,51.13
2023-02-19T13:05:59.249Z,51.55
2023-02-19T13:08:42.067Z,50.85
2023-02-19T13:11:25.244Z,50.84
2023-02-19T13:14:24.389Z,51.96
2023-02-19T13:17:00.580Z,52.47
2023-02-19T13:19:30.722Z,52.92
2023-02-19T13:22:33.229Z,52.13
2023-02-19T13:25:02.877Z,52.06
2023-02-19T13:28:03.463Z,52.95
2023-02-19T13:31:02.691Z,52.86
2023-02-19T13:33:45.816Z,52.16
2023-02-19T13:36:26.082Z,50.83
2023-02-19T13:38:57.522Z,50.64
2023-02-19T13:41:41.744Z,50.89
2023-02-19T13:44:20.231Z,49.58
2023-02-19T13:46:50.299Z,49.59
2023-02-19T13:49:36.479Z,48.17
2023-02-19T13:52:29.851Z,48.31
2023-02-19T13:55:35.392Z,50.54
2023-02-19T13:58:33.402Z,49.99
2023-02-19T14:01:11.963Z,49.33
2023-02-19T14:03:45.973Z,48.84
2023-02-19T14:06:15.191Z,49.84
2023-02-19T14:08:52.685Z,50.56
2023-02-19T14:11:47.911Z,50.86
2023-02-19T14:14:36.671Z,51.30
2023-02-19T14:17:10.224Z,50.85
2023-02-19T14:19:55.535Z,52.21
2023-02-19T14:22:57.776Z,51.66
2023-02-19T14:25:30.880Z,51.43
2023-02-19T14:28:07.383Z,51.60
2023-02-19T14:30:46.098Z,50.89
2023-02-19T14:33:17.528Z,50.54
2023-02-19T14:35:48.962Z,51.64
2023-02-19T14:38:32.346Z,51.40
2023-02-19T14:41:01.327Z,51.44
2023-02-19T14:43:30.911Z,52.06
2023-02-19T14:46:03.724Z,52.16
2023-02-19T14:48:41.829Z,51.88
2023-02-19T14:51:39.614Z,50.97
2023-02-19T14:54:18.654Z,51.13
2023-02-19T14:56:51.503Z,50.79
2023-02-19T14:59:28.449Z,50.83
2023-02-19T15:02:14.580Z,51.35
2023-02-19T15:04:43.703Z,51.78
2023-02-19T15:07:19.601Z,52.20
2023-02-19T15:09:50.874Z,52.37
2023-02-19T15:12:25.932Z,52.92
2023-02-19T15:15:00.020Z,52.67
2023-02-19T15:17:34.685Z,52.97
2023-02-19T15:20:09.576Z,53.44
2023-02-19T15:22:41.609Z,53.65
2023-02-19T15:25:18.874Z,53.49
2023-02-19T15:27:48.350Z,54.21
2023-02-19T15:30:29.709Z,54.42
2023-02-19T15:32:59.766Z,54.70
2023-02-19T15:35:32.664Z,54.38
2023-02-19T15:38:01.567Z,54.84
2023-02-19T15:40:31.495Z,55.31
2023-02-19T15:43:01.167Z,54.59
2023-02-19T15:45:46.383Z,55.44
2023-02-19T15:48:21.846Z,55.54
2023-02-19T15:50:59.604Z,55.96
2023-02-19T15:53:31.216Z,56.00
2023-02-19T15:56:28.449Z,56.06
2023-02-19T15:59:36.790Z,55.97
2023-02-19T16:02:05.406Z,56.08
2023-02-19T16:04:34.683Z,56.72
2023-02-19T16:07:03.793Z,56.65
2023-02-19T16:09:36.499Z,57.17
2023-02-19T16:12:21.682Z,56.93
2023-02-19T16:14:51.239Z,57.40
2023-02-19T16:17:25.125Z,57.17
2023-02-19T16:19:57.521Z,58.02
2023-02-19T16:22:30.128Z,57.50
2023-02-19T16:25:06.772Z,57.26
2023-02-19T16:27:42.460Z,57.19
2023-02-19T16:30:25.788Z,57.14
2023-02-19T16:33:34.910Z,58.03
2023-02-19T16:36:24.003Z,58.52
2023-02-19T16:39:07.594Z,58.28
2023-02-19T16:41:45.355Z,58.19
2023-02-19T16:44:28.883Z,58.81
2023-02-19T16:47:05.509Z,57.82
2023-02-19T16:49:34.050Z,57.82
2023-02-19T16:52:04.635Z,57.81
2023-02-19T16:54:33.346Z,57.74
2023-02-19T16:57:01.874Z,58.85
2023-02-19T16:59:30.508Z,58.67
2023-02-19T17:01:59.402Z,59.61
2023-02-19T17:04:28.326Z,60.34
2023-02-19T17:06:57.418Z,60.94
2023-02-19T17:09:26.202Z,60.67
2023-02-19T17:11:54.732Z,60.88
2023-02-19T17:14:24.097Z,61.20
2023-02-19T17:16:53.067Z,61.33
2023-02-19T17:19:22.541Z,62.56
2023-02-19T17:21:51.633Z,62.99
2023-02-19T17:24:19.472Z,62.85
2023-02-19T17:26:48.426Z,62.81
2023-02-19T17:29:18.639Z,62.84
2023-02-19T17:31:47.580Z,62.56
2023-02-19T17:34:15.387Z,62.79
2023-02-19T17:36:45.646Z,62.44
2023-02-19T17:39:15.837Z,62.53
2023-02-19T17:41:44.490Z,62.79
2023-02-19T17:44:14.574Z,62.57
2023-02-19T17:46:45.656Z,62.75
2023-02-19T17:49:14.480Z,61.83
2023-02-19T17:51:42.361Z,62.35
2023-02-19T17:54:11.252Z,62.09
2023-02-19T17:56:43.442Z,62.26
2023-02-19T17:59:12.881Z,62.46
2023-02-19T18:01:41.578Z,62.52
2023-02-19T18:04:10.236Z,62.58
2023-02-19T18:06:39.094Z,62.44
2023-02-19T18:09:08.445Z,63.11
2023-02-19T18:11:37.491Z,63.02
2023-02-19T18:14:06.077Z,63.14
2023-02-19T18:16:34.677Z,62.48
2023-02-19T18:19:03.981Z,62.84
2023-02-19T18:21:32.692Z,62.15
2023-02-19T18:24:01.706Z,62.17
2023-02-19T18:26:30.291Z,63.00
2023-02-19T18:28:58.376Z,62.34
2023-02-19T18:31:26.554Z,61.82
2023-02-19T18:33:54.371Z,61.57
2023-02-19T18:36:23.162Z,61.17
2023-02-19T18:38:51.706Z,60.44
2023-02-19T18:41:21.310Z,59.89
2023-02-19T18:43:50.630Z,60.73
2023-02-19T18:46:21.454Z,60.68
2023-02-19T18:48:49.209Z,60.43
2023-02-19T18:51:17.379Z,60.17
2023-02-19T18:53:45.211Z,60.40
2023-02-19T18:56:12.353Z,60.32
2023-02-19T18:58:40.413Z,60.32
2023-02-19T19:01:07.715Z,60.44
2023-02-19T19:03:34.861Z,60.61
2023-02-19T19:06:01.862Z,60.82
2023-02-19T19:08:30.690Z,60.81
2023-02-19T19:10:58.636Z,60.52
2023-02-19T19:13:26.897Z,60.56
2023-02-19T19:15:55.983Z,61.54
2023-02-19T19:18:26.424Z,61.16
2023-02-19T19:20:56.953Z,61.26
2023-02-19T19:23:23.832Z,61.77
2023-02-19T19:25:51.513Z,61.90
2023-02-19T19:28:18.178Z,62.48
2023-02-19T19:30:44.946Z,62.49
2023-02-19T19:33:14.258Z,62.62
2023-02-19T19:35:42.527Z,62.60
2023-02-19T19:38:10.272Z,62.69
2023-02-19T19:40:37.413Z,62.41
2023-02-19T19:43:04.343Z,62.58
2023-02-19T19:45:31.708Z,62.69
2023-02-19T19:47:58.690Z,62.58
2023-02-19T19:50:25.527Z,62.24
2023-02-19T19:52:52.441Z,63.05
2023-02-19T19:55:21.728Z,62.96
2023-02-19T19:57:49.851Z,62.15
2023-02-19T20:00:18.158Z,62.60
2023-02-19T20:02:46.774Z,62.52
2023-02-19T20:05:14.808Z,62.85
2023-02-19T20:07:41.574Z,62.98
2023-02-19T20:10:11.526Z,62.81
2023-02-19T20:12:40.081Z,63.05
2023-02-19T20:15:09.167Z,62.94
2023-02-19T20:17:37.680Z,63.04
2023-02-19T20:20:05.668Z,62.53
2023-02-19T20:22:37.345Z,63.00
2023-02-19T20:25:04.751Z,63.44
2023-02-19T20:27:37.857Z,63.61
2023-02-19T20:30:06.494Z,63.70
2023-02-19T20:32:33.722Z,63.64
2023-02-19T20:35:01.827Z,64.96
2023-02-19T20:37:32.112Z,65.35
2023-02-19T20:39:59.512Z,66.09
2023-02-19T20:42:27.767Z,65.97
2023-02-19T20:44:57.169Z,66.05
2023-02-19T20:47:24.330Z,65.56
2023-02-19T20:49:52.164Z,65.63
2023-02-19T20:52:25.449Z,66.01
2023-02-19T20:54:57.234Z,65.58
2023-02-19T20:57:25.409Z,65.50
2023-02-19T20:59:54.089Z,65.48
2023-02-19T21:02:25.272Z,65.77
2023-02-19T21:04:53.994Z,66.25
2023-02-19T21:07:21.657Z,66.13
2023-02-19T21:09:48.609Z,66.50
2023-02-19T21:12:17.059Z,66.08
2023-02-19T21:14:45.966Z,65.98
2023-02-19T21:17:13.977Z,66.27
2023-02-19T21:19:41.833Z,66.68
2023-02-19T21:22:10.215Z,66.92
2023-02-19T21:24:37.585Z,66.63
2023-02-19T21:27:05.138Z,66.76
2023-02-19T21:29:33.036Z,66.17
2023-02-19T21:32:00.194Z,66.26
2023-02-19T21:34:30.595Z,65.69
2023-02-19T21:36:58.072Z,65.66
2023-02-19T21:39:28.566Z,65.75
2023-02-19T21:41:55.575Z,65.33
2023-02-19T21:44:23.501Z,64.73
2023-02-19T21:46:50.539Z,64.63
2023-02-19T21:49:17.613Z,64.41
2023-02-19T21:51:45.716Z,64.58
2023-02-19T21:54:18.803Z,64.67
2023-02-19T21:56:46.691Z,65.02
2023-02-19T21:59:13.749Z,64.86
2023-02-19T22:01:42.234Z,65.00
2023-02-19T22:04:13.064Z,64.73
2023-02-19T22:06:43.599Z,64.27
2023-02-19T22:09:11.992Z,64.20
2023-02-19T22:11:38.877Z,64.13
2023-02-19T22:14:05.888Z,63.92
2023-02-19T22:16:33.374Z,63.93
2023-02-19T22:19:01.383Z,64.03
2023-02-19T22:21:33.483Z,64.19
2023-02-19T22:24:02.397Z,63.97
2023-02-19T22:26:34.516Z,64.18
2023-02-19T22:29:07.437Z,64.06
2023-02-19T22:31:35.752Z,63.85
2023-02-19T22:34:03.197Z,64.14
2023-02-19T22:36:31.301Z,63.84
2023-02-19T22:38:58.598Z,63.33
2023-02-19T22:41:26.424Z,63.71
2023-02-19T22:44:00.153Z,63.97
2023-02-19T22:46:29.984Z,64.45
2023-02-19T22:48:58.029Z,64.28
2023-02-19T22:51:25.849Z,64.24
2023-02-19T22:53:55.279Z,64.16
2023-02-19T22:56:24.746Z,63.95
2023-02-19T22:58:52.999Z,63.88
2023-02-19T23:01:20.661Z,63.63
2023-02-19T23:03:53.198Z,64.00
2023-02-19T23:06:25.970Z,63.46
2023-02-19T23:08:55.075Z,63.29
2023-02-19T23:11:27.859Z,63.25
2023-02-19T23:13:55.605Z,63.15
2023-02-19T23:16:22.598Z,63.19
2023-02-19T23:18:49.881Z,63.42
2023-02-19T23:21:18.540Z,63.43
2023-02-19T23:23:46.186Z,63.73
2023-02-19T23:26:14.135Z,64.51
2023-02-19T23:28:43.130Z,64.05
2023-02-19T23:31:10.230Z,64.43
2023-02-19T23:33:37.157Z,64.32
2023-02-19T23:36:05.062Z,64.39
2023-02-19T23:38:31.999Z,64.98
2023-02-19T23:40:59.158Z,64.56
2023-02-19T23:43:26.231Z,64.07
2023-02-19T23:45:53.056Z,64.22
2023-02-19T23:48:20.052Z,63.71
2023-02-19T23:50:46.782Z,62.66
2023-02-19T23:53:13.635Z,61.38
2023-02-19T23:55:40.610Z,59.61
2023-02-19T23:58:07.491Z,59.33
